Time;durP1;ratioP1;P1;durP2;ratioP2;P2;SDS_P1;SDS_P2;PMS_P1;PMS_P2;Temp;Humidity;BMP_temperature;BMP_pressure;BME280_temperature;BME280_humidity;BME280_pressure;Samples;Min_cycle;Max_cycle;Signal;HPM_P1;HPM_P2
2021/10/24 00:01:19;;;;;;;10.02;4.30;;;205.30;2252.80;;;;;;5076704;28;20494;-62
2021/10/24 00:03:45;;;;;;;5.72;3.55;;;205.20;2252.80;;;;;;5076293;28;20047;-64
2021/10/24 00:06:11;;;;;;;7.40;4.20;;;205.20;2252.80;;;;;;5076572;28;20067;-64
2021/10/24 00:08:36;;;;;;;7.50;4.18;;;205.30;2252.80;;;;;;5076454;28;20481;-64
2021/10/24 00:11:02;;;;;;;8.02;4.03;;;205.20;2252.80;;;;;;5076305;28;20073;-63
2021/10/24 00:13:29;;;;;;;7.68;4.28;;;205.20;2252.80;;;;;;5076202;28;20473;-64
2021/10/24 00:15:56;;;;;;;8.40;3.92;;;205.10;2252.80;;;;;;5076212;28;20033;-64
2021/10/24 00:18:22;;;;;;;8.98;4.47;;;205.20;2252.80;;;;;;5076250;28;20052;-65
2021/10/24 00:20:48;;;;;;;6.38;3.65;;;205.10;2252.80;;;;;;5058530;28;20347;-64
2021/10/24 00:23:14;;;;;;;8.43;4.38;;;205.10;2252.80;;;;;;5076178;28;20037;-65
2021/10/24 00:25:40;;;;;;;10.30;4.28;;;205.10;2252.80;;;;;;5057301;28;20039;-64
2021/10/24 00:28:06;;;;;;;6.47;4.53;;;205.10;2252.80;;;;;;5076009;28;20143;-64
2021/10/24 00:30:32;;;;;;;9.68;4.30;;;205.10;2252.80;;;;;;5076301;28;20465;-63
2021/10/24 00:33:01;;;;;;;7.63;4.30;;;205.10;2252.80;;;;;;5074752;28;20436;-64
2021/10/24 00:35:27;;;;;;;7.93;4.78;;;205.00;2252.80;;;;;;5076004;28;20539;-64
2021/10/24 00:37:53;;;;;;;9.63;4.75;;;204.90;2252.80;;;;;;5076003;28;20032;-64
2021/10/24 00:40:18;;;;;;;9.40;5.10;;;180.10;2252.80;;;;;;5075807;28;20400;-64
2021/10/24 00:42:49;;;;;;;10.45;4.95;;;180.10;2252.80;;;;;;5075565;28;20024;-63
2021/10/24 00:45:16;;;;;;;9.93;5.68;;;180.10;2252.80;;;;;;5075721;28;20032;-64
2021/10/24 00:47:42;;;;;;;9.38;5.50;;;180.10;2252.80;;;;;;5075742;28;20028;-63
2021/10/24 00:50:08;;;;;;;10.43;6.05;;;180.10;2252.80;;;;;;5075676;28;20024;-64
2021/10/24 00:52:34;;;;;;;12.65;6.70;;;180.10;2252.80;;;;;;5075630;28;20028;-63
2021/10/24 00:55:00;;;;;;;12.13;6.43;;;180.10;2252.80;;;;;;5075919;28;20458;-64
2021/10/24 00:57:27;;;;;;;11.48;6.60;;;180.00;2252.80;;;;;;5075440;28;20025;-61
2021/10/24 00:59:53;;;;;;;12.57;6.55;;;180.00;2252.80;;;;;;5075673;28;20028;-64
2021/10/24 01:02:19;;;;;;;12.40;7.03;;;180.00;2252.80;;;;;;5075481;28;20075;-64
2021/10/24 01:04:45;;;;;;;11.45;6.38;;;180.00;2252.80;;;;;;5075617;28;20039;-64
2021/10/24 01:07:13;;;;;;;11.13;6.10;;;180.00;2252.80;;;;;;5075278;28;20028;-64
2021/10/24 01:09:39;;;;;;;13.88;5.72;;;180.00;2252.80;;;;;;5075470;28;20339;-63
2021/10/24 01:12:05;;;;;;;9.85;5.18;;;179.90;2252.80;;;;;;5075374;28;20109;-64
2021/10/24 01:14:31;;;;;;;11.98;5.70;;;179.80;2252.80;;;;;;5075208;28;20017;-63
2021/10/24 01:16:57;;;;;;;10.90;5.75;;;179.80;2252.80;;;;;;5075230;28;20046;-64
2021/10/24 01:19:23;;;;;;;9.85;5.47;;;179.70;2252.80;;;;;;5074571;28;20074;-64
2021/10/24 01:21:49;;;;;;;9.48;5.68;;;179.70;2252.80;;;;;;5075006;28;20100;-65
2021/10/24 01:24:15;;;;;;;10.63;5.95;;;179.70;2252.80;;;;;;5074974;28;20492;-64
2021/10/24 01:26:41;;;;;;;9.93;5.80;;;179.60;2252.80;;;;;;5074919;28;20059;-64
2021/10/24 01:29:09;;;;;;;9.80;6.15;;;179.60;2252.80;;;;;;5074920;28;20020;-64
2021/10/24 01:31:35;;;;;;;10.15;5.80;;;179.60;2252.80;;;;;;5075033;28;20024;-64
2021/10/24 01:34:01;;;;;;;10.80;5.70;;;179.60;2252.80;;;;;;5074496;28;20056;-63
2021/10/24 01:36:28;;;;;;;11.02;5.80;;;179.60;2252.80;;;;;;5074719;28;20028;-62
2021/10/24 01:38:53;;;;;;;11.23;6.07;;;179.60;2252.80;;;;;;5074666;28;20389;-63
2021/10/24 01:41:23;;;;;;;11.43;6.82;;;179.70;2252.80;;;;;;5074872;28;20025;-63
2021/10/24 01:43:49;;;;;;;12.63;7.00;;;179.70;2252.80;;;;;;5074577;28;20033;-63
2021/10/24 01:46:15;;;;;;;11.38;6.10;;;179.70;2252.80;;;;;;5074567;28;20055;-63
2021/10/24 01:48:42;;;;;;;10.88;5.70;;;179.70;2252.80;;;;;;5074348;28;20551;-63
2021/10/24 01:51:09;;;;;;;9.70;4.93;;;179.70;2252.80;;;;;;5074511;28;20028;-63
2021/10/24 01:53:38;;;;;;;7.15;4.18;;;179.70;2252.80;;;;;;5074354;28;20028;-64
2021/10/24 01:56:05;;;;;;;8.77;4.35;;;179.70;2252.80;;;;;;5074459;28;20021;-64
2021/10/24 01:58:31;;;;;;;7.63;4.60;;;179.70;2252.80;;;;;;5073972;28;20063;-63
2021/10/24 02:00:57;;;;;;;13.30;7.40;;;179.60;2252.80;;;;;;5074365;28;20070;-63
2021/10/24 02:03:23;;;;;;;17.20;9.57;;;179.60;2252.80;;;;;;5074041;28;20040;-64
2021/10/24 02:05:49;;;;;;;17.90;10.52;;;179.60;2252.80;;;;;;5074377;28;20427;-63
2021/10/24 02:08:15;;;;;;;15.43;8.85;;;179.60;2252.80;;;;;;5073990;28;20028;-64
2021/10/24 02:10:41;;;;;;;14.90;8.00;;;179.60;2252.80;;;;;;5074042;28;20057;-64
2021/10/24 02:13:08;;;;;;;36.40;20.23;;;179.60;2252.80;;;;;;5073901;28;20448;-63
2021/10/24 02:15:35;;;;;;;33.40;18.50;;;179.50;2252.80;;;;;;5074067;28;20111;-62
2021/10/24 02:18:02;;;;;;;42.40;23.35;;;179.50;2252.80;;;;;;5073894;28;20385;-63
2021/10/24 02:20:29;;;;;;;21.05;12.20;;;179.40;2252.80;;;;;;5074035;28;20036;-63
2021/10/24 02:22:55;;;;;;;23.20;10.63;;;179.40;2252.80;;;;;;5073754;28;20036;-64
2021/10/24 02:25:22;;;;;;;23.30;12.77;;;179.40;2252.80;;;;;;5056016;28;20428;-63
2021/10/24 02:27:48;;;;;;;18.98;10.65;;;179.40;2252.80;;;;;;5073903;28;20025;-63
2021/10/24 02:30:14;;;;;;;13.85;8.00;;;179.40;2252.80;;;;;;5055857;28;20035;-63
2021/10/24 02:32:41;;;;;;;16.67;9.68;;;179.40;2252.80;;;;;;5073681;28;20040;-63
2021/10/24 02:35:08;;;;;;;32.13;17.73;;;179.30;2252.80;;;;;;5073711;28;20381;-63
2021/10/24 02:37:34;;;;;;;49.22;26.23;;;179.40;2252.80;;;;;;5073586;28;20470;-62
2021/10/24 02:40:00;;;;;;;46.13;24.90;;;179.30;2252.80;;;;;;5073544;28;20025;-62
2021/10/24 02:42:26;;;;;;;27.33;13.80;;;179.30;2252.80;;;;;;5073229;28;20054;-63
2021/10/24 02:44:52;;;;;;;22.25;13.63;;;179.30;2252.80;;;;;;5073508;28;20500;-63
2021/10/24 02:47:18;;;;;;;18.40;10.50;;;179.40;2252.80;;;;;;5073686;28;20033;-63
2021/10/24 02:49:44;;;;;;;13.35;8.43;;;179.30;2252.80;;;;;;5073627;28;20025;-63
2021/10/24 02:52:10;;;;;;;11.98;5.70;;;179.40;2252.80;;;;;;5073393;28;20119;-63
2021/10/24 02:54:36;;;;;;;7.30;4.13;;;179.40;2252.80;;;;;;5073671;28;20031;-63
2021/10/24 02:57:05;;;;;;;6.20;3.25;;;179.40;2252.80;;;;;;5072833;28;20021;-63
2021/10/24 02:59:31;;;;;;;8.50;2.83;;;179.40;2252.80;;;;;;5073725;28;20032;-63
2021/10/24 03:01:57;;;;;;;7.72;3.38;;;179.40;2252.80;;;;;;5073450;28;20024;-63
2021/10/24 03:04:22;;;;;;;5.85;3.03;;;179.40;2252.80;;;;;;5073430;28;20043;-63
2021/10/24 03:06:48;;;;;;;7.68;3.42;;;179.40;2252.80;;;;;;5073539;28;20032;-62
2021/10/24 03:09:14;;;;;;;7.03;3.90;;;179.40;2252.80;;;;;;5073623;28;20126;-63
2021/10/24 03:11:40;;;;;;;12.48;3.60;;;179.40;2252.80;;;;;;5073258;28;20024;-63
2021/10/24 03:14:05;;;;;;;6.78;3.60;;;179.40;2252.80;;;;;;5073545;28;20055;-63
2021/10/24 03:16:33;;;;;;;7.28;3.50;;;179.40;2252.80;;;;;;5073539;28;20028;-63
2021/10/24 03:19:00;;;;;;;9.10;4.00;;;179.30;2252.80;;;;;;5073271;28;20054;-62
2021/10/24 03:21:25;;;;;;;6.40;3.65;;;179.30;2252.80;;;;;;5073537;28;20397;-63
2021/10/24 03:23:51;;;;;;;6.32;4.00;;;179.30;2252.80;;;;;;5073474;28;20028;-63
2021/10/24 03:26:18;;;;;;;8.98;3.55;;;179.20;2252.80;;;;;;5055207;28;20408;-63
2021/10/24 03:28:44;;;;;;;9.18;3.97;;;179.20;2252.80;;;;;;5073174;28;20035;-62
2021/10/24 03:31:09;;;;;;;10.57;4.55;;;179.20;2252.80;;;;;;5073065;28;20025;-62
2021/10/24 03:33:35;;;;;;;10.20;4.90;;;179.20;2252.80;;;;;;5072891;28;20063;-63
2021/10/24 03:36:01;;;;;;;15.73;5.75;;;154.50;2252.80;;;;;;5073028;28;20059;-63
2021/10/24 03:38:27;;;;;;;12.98;5.82;;;154.50;2252.80;;;;;;5073108;28;20032;-62
2021/10/24 03:40:52;;;;;;;12.20;6.03;;;154.50;2252.80;;;;;;5073226;28;20074;-63
2021/10/24 03:43:18;;;;;;;14.65;5.65;;;154.50;2252.80;;;;;;5073017;28;20032;-61
2021/10/24 03:45:44;;;;;;;11.25;5.50;;;154.40;2252.80;;;;;;5073101;28;20027;-63
2021/10/24 03:48:09;;;;;;;11.40;5.63;;;154.40;2252.80;;;;;;5072868;28;20466;-63
2021/10/24 03:50:35;;;;;;;10.65;5.65;;;154.40;2252.80;;;;;;5055059;28;20115;-63
2021/10/24 03:53:01;;;;;;;11.88;6.03;;;154.40;2252.80;;;;;;5073062;28;20025;-62
2021/10/24 03:55:27;;;;;;;11.82;6.38;;;154.40;2252.80;;;;;;5073069;28;20081;-63
2021/10/24 03:57:52;;;;;;;11.68;6.68;;;154.30;2252.80;;;;;;5073155;28;20021;-63
2021/10/24 04:00:18;;;;;;;16.30;6.68;;;154.30;2252.80;;;;;;5072792;28;20060;-62
2021/10/24 04:02:53;;;;;;;13.15;7.35;;;154.30;2252.80;;;;;;5072690;28;20035;-63
2021/10/24 04:05:19;;;;;;;13.75;7.93;;;154.30;2252.80;;;;;;5072349;28;20056;-63
2021/10/24 04:07:47;;;;;;;15.73;9.45;;;154.30;2252.80;;;;;;5072875;28;20021;-62
2021/10/24 04:10:13;;;;;;;12.57;7.15;;;154.20;2252.80;;;;;;5076673;28;20416;-62
2021/10/24 04:12:39;;;;;;;14.65;9.07;;;154.10;2252.80;;;;;;5076093;28;20024;-62
2021/10/24 04:15:05;;;;;;;11.82;7.07;;;154.00;2252.80;;;;;;5076512;28;20028;-63
2021/10/24 04:17:30;;;;;;;14.80;6.13;;;153.90;2252.80;;;;;;5076216;28;20486;-62
2021/10/24 04:19:56;;;;;;;13.68;5.50;;;153.90;2252.80;;;;;;5076025;28;20075;-62
2021/10/24 04:22:22;;;;;;;11.30;5.10;;;153.90;2252.80;;;;;;5076218;28;20063;-63
2021/10/24 04:24:48;;;;;;;14.15;7.80;;;153.90;2252.80;;;;;;5076256;28;20119;-62
2021/10/24 04:27:13;;;;;;;10.05;6.78;;;153.90;2252.80;;;;;;5076085;28;20036;-63
2021/10/24 04:29:39;;;;;;;14.27;7.80;;;154.00;2252.80;;;;;;5076046;28;20070;-62
2021/10/24 04:32:05;;;;;;;13.88;9.05;;;154.00;2252.80;;;;;;5076178;28;20036;-62
2021/10/24 04:34:31;;;;;;;14.57;7.97;;;154.00;2252.80;;;;;;5075380;28;20534;-62
2021/10/24 04:36:56;;;;;;;13.80;6.22;;;153.90;2252.80;;;;;;5068834;28;20040;-62
2021/10/24 04:39:22;;;;;;;11.73;6.05;;;153.90;2252.80;;;;;;5064037;28;20059;-62
2021/10/24 04:41:48;;;;;;;11.27;6.28;;;153.90;2252.80;;;;;;5065735;28;20032;-62
2021/10/24 04:44:13;;;;;;;11.43;6.30;;;153.90;2252.80;;;;;;5065110;28;20067;-61
2021/10/24 04:46:39;;;;;;;14.57;6.78;;;153.90;2252.80;;;;;;5063678;28;20036;-62
2021/10/24 04:49:05;;;;;;;16.40;6.90;;;153.90;2252.80;;;;;;5046113;28;20041;-62
2021/10/24 04:51:31;;;;;;;16.42;7.05;;;153.90;2252.80;;;;;;5065203;28;20033;-62
2021/10/24 04:53:56;;;;;;;9.52;5.70;;;153.90;2252.80;;;;;;5060406;28;20067;-62
2021/10/24 04:56:22;;;;;;;11.55;5.95;;;153.80;2252.80;;;;;;5064415;28;20040;-62
2021/10/24 04:58:48;;;;;;;9.65;5.60;;;153.80;2252.80;;;;;;5064616;28;20701;-62
2021/10/24 05:01:13;;;;;;;11.38;5.28;;;153.80;2252.80;;;;;;5062910;28;20017;-61
2021/10/24 05:03:39;;;;;;;11.13;4.90;;;153.70;2252.80;;;;;;5064539;28;20025;-62
2021/10/24 05:06:06;;;;;;;12.05;5.43;;;153.70;2252.80;;;;;;5064523;28;20083;-62
2021/10/24 05:08:32;;;;;;;11.45;5.60;;;153.70;2252.80;;;;;;5063215;28;20029;-62
2021/10/24 05:10:57;;;;;;;12.35;5.38;;;153.70;2252.80;;;;;;5054830;28;20037;-62
2021/10/24 05:13:24;;;;;;;11.25;5.40;;;153.70;2252.80;;;;;;5058093;28;20039;-62
2021/10/24 05:15:50;;;;;;;12.70;5.65;;;153.70;2252.80;;;;;;5063042;28;20032;-62
2021/10/24 05:18:16;;;;;;;10.65;5.30;;;153.70;2252.80;;;;;;5063452;28;20028;-62
2021/10/24 05:20:41;;;;;;;12.98;6.10;;;153.70;2252.80;;;;;;5064341;28;20115;-62
2021/10/24 05:23:10;;;;;;;18.45;10.48;;;153.70;2252.80;;;;;;5062030;28;20113;-61
2021/10/24 05:25:36;;;;;;;19.55;10.75;;;153.70;2252.80;;;;;;5063825;28;20857;-62
2021/10/24 05:28:02;;;;;;;19.48;10.15;;;153.80;2252.80;;;;;;5062761;28;20037;-62
2021/10/24 05:30:28;;;;;;;21.50;8.57;;;153.80;2252.80;;;;;;5060149;28;20028;-62
2021/10/24 05:32:54;;;;;;;66.22;25.42;;;153.80;2252.80;;;;;;5064081;28;20040;-62
2021/10/24 05:35:19;;;;;;;169.57;68.07;;;153.90;2252.80;;;;;;5063285;28;20099;-62
2021/10/24 05:37:45;;;;;;;222.50;80.90;;;154.00;2252.80;;;;;;5062650;28;20413;-62
2021/10/24 05:40:12;;;;;;;55.33;23.58;;;154.10;2252.80;;;;;;5062809;28;20114;-62
2021/10/24 05:42:38;;;;;;;31.42;19.05;;;154.30;2252.80;;;;;;5062527;28;20025;-62
2021/10/24 05:45:05;;;;;;;29.80;19.80;;;179.40;2252.80;;;;;;5064004;28;20020;-62
2021/10/24 05:47:30;;;;;;;15.20;9.38;;;180.10;2252.80;;;;;;5062862;28;20029;-62
2021/10/24 05:49:56;;;;;;;17.20;8.70;;;205.60;2252.80;;;;;;5063147;28;20031;-63
2021/10/24 05:52:23;;;;;;;15.75;8.02;;;231.00;2252.80;;;;;;5064227;28;20050;-63
2021/10/24 05:54:49;;;;;;;14.18;6.93;;;256.80;2252.80;;;;;;5062690;28;20049;-63
2021/10/24 05:57:14;;;;;;;13.60;8.30;;;282.40;2278.40;;;;;;5062711;28;20031;-64
2021/10/24 05:59:41;;;;;;;18.02;12.25;;;308.00;2304.00;;;;;;5063867;28;20036;-63
2021/10/24 06:02:10;;;;;;;17.33;10.55;;;333.40;2227.20;;;;;;5062421;28;20029;-64
2021/10/24 06:04:36;;;;;;;16.73;10.40;;;358.60;2073.60;;;;;;5062259;28;20033;-64
2021/10/24 06:07:02;;;;;;;20.05;12.32;;;333.60;2048.00;;;;;;5064097;28;20024;-63
2021/10/24 06:09:39;;;;;;;43.05;26.15;;;358.70;1996.80;;;;;;5061919;28;20020;-63
2021/10/24 06:12:05;;;;;;;48.47;27.50;;;359.00;1945.60;;;;;;5061947;28;20025;-64
2021/10/24 06:14:31;;;;;;;80.10;37.60;;;384.90;1792.00;;;;;;5062296;28;20077;-63
2021/10/24 06:16:57;;;;;;;42.50;25.80;;;410.50;1664.00;;;;;;5063217;28;20025;-63
2021/10/24 06:19:23;;;;;;;45.58;29.88;;;435.80;1561.60;;;;;;5061481;28;20100;-62
2021/10/24 06:21:48;;;;;;;73.20;38.92;;;460.80;1536.00;;;;;;5044082;28;20550;-63
2021/10/24 06:24:14;;;;;;;138.75;60.40;;;436.00;1510.40;;;;;;5062479;28;20063;-63
2021/10/24 06:26:40;;;;;;;58.58;36.17;;;435.70;1536.00;;;;;;5063130;28;20420;-63
2021/10/24 06:29:06;;;;;;;53.28;31.30;;;435.40;1561.60;;;;;;5061687;28;20104;-65
2021/10/24 06:31:32;;;;;;;70.13;31.13;;;410.40;1587.20;;;;;;5061666;28;20095;-65
2021/10/24 06:33:58;;;;;;;134.65;45.88;;;409.70;1638.40;;;;;;5060427;28;20803;-64
2021/10/24 06:36:24;;;;;;;42.58;19.70;;;384.60;1664.00;;;;;;5045509;28;20127;-63
2021/10/24 06:38:50;;;;;;;53.85;20.50;;;384.20;1689.60;;;;;;5061862;28;20351;-62
2021/10/24 06:41:16;;;;;;;42.53;15.63;;;359.10;1715.20;;;;;;5061775;28;20043;-62
2021/10/24 06:43:41;;;;;;;110.25;32.17;;;358.80;1740.80;;;;;;5062848;28;20036;-62
2021/10/24 06:46:08;;;;;;;40.13;15.10;;;333.70;1792.00;;;;;;5061393;28;20017;-65
2021/10/24 06:48:33;;;;;;;46.10;17.10;;;358.40;1817.60;;;;;;5062124;28;20077;-65
2021/10/24 06:50:59;;;;;;;35.40;11.85;;;333.30;1868.80;;;;;;5063108;28;20104;-63
2021/10/24 06:53:25;;;;;;;29.45;12.50;;;333.10;1894.40;;;;;;5058421;28;20025;-65
2021/10/24 06:55:51;;;;;;;49.40;24.27;;;332.80;1945.60;;;;;;5062565;28;20358;-64
2021/10/24 06:58:16;;;;;;;43.40;17.00;;;308.00;1945.60;;;;;;5044805;28;20033;-64
2021/10/24 07:00:43;;;;;;;41.63;16.55;;;308.00;1971.20;;;;;;5060930;28;20067;-65
2021/10/24 07:03:08;;;;;;;12.57;6.70;;;308.00;1996.80;;;;;;5062852;28;20024;-64
2021/10/24 07:05:36;;;;;;;25.65;10.98;;;332.80;1996.80;;;;;;5062614;28;20359;-66
2021/10/24 07:08:02;;;;;;;24.20;11.52;;;333.10;1996.80;;;;;;5060881;28;20021;-66
2021/10/24 07:10:28;;;;;;;16.25;9.00;;;333.70;1945.60;;;;;;5062666;28;20034;-67
2021/10/24 07:12:54;;;;;;;17.13;8.18;;;358.90;1868.80;;;;;;5062169;28;20013;-67
2021/10/24 07:15:21;;;;;;;13.95;8.15;;;384.60;1766.40;;;;;;5042910;28;20036;-63
2021/10/24 07:17:47;;;;;;;19.50;12.10;;;410.10;1664.00;;;;;;5043618;28;20028;-67
2021/10/24 07:20:16;;;;;;;33.38;19.40;;;435.50;1587.20;;;;;;5062024;28;20099;-65
2021/10/24 07:22:42;;;;;;;18.95;11.38;;;460.80;1536.00;;;;;;5062765;28;20033;-62
2021/10/24 07:25:09;;;;;;;18.10;9.45;;;461.40;1459.20;;;;;;5042788;28;20096;-63
2021/10/24 07:27:34;;;;;;;10.35;6.55;;;486.80;1382.40;;;;;;5061574;28;20024;-63
2021/10/24 07:30:00;;;;;;;8.98;4.65;;;512.40;1280.00;;;;;;5044986;28;20028;-67
2021/10/24 07:32:26;;;;;;;6.75;3.97;;;538.40;1228.80;;;;;;5061078;28;20103;-68
2021/10/24 07:34:52;;;;;;;9.93;5.53;;;589.20;1100.80;;;;;;5060862;28;20116;-68
2021/10/24 07:37:17;;;;;;;11.60;9.00;;;640.00;972.80;;;;;;5061362;28;20576;-67
2021/10/24 07:39:44;;;;;;;16.98;9.05;;;665.80;947.20;;;;;;5062957;28;20023;-68
2021/10/24 07:42:10;;;;;;;13.85;8.40;;;691.50;844.80;;;;;;5067884;28;20024;-64
2021/10/24 07:44:36;;;;;;;12.30;7.40;;;717.10;819.20;;;;;;5077107;28;20443;-67
2021/10/24 07:47:03;;;;;;;11.07;6.32;;;742.40;793.60;;;;;;5076972;28;20454;-69
2021/10/24 07:49:29;;;;;;;8.05;4.40;;;768.00;793.60;;;;;;5076603;28;20020;-67
2021/10/24 07:51:56;;;;;;;7.75;4.03;;;768.80;742.40;;;;;;5076721;28;20017;-69
2021/10/24 07:54:22;;;;;;;7.93;5.45;;;794.40;691.20;;;;;;5076587;28;20082;-69
2021/10/24 07:56:48;;;;;;;7.97;5.20;;;819.30;691.20;;;;;;5076803;28;20029;-68
2021/10/24 07:59:14;;;;;;;7.05;4.53;;;844.80;665.60;;;;;;5076551;28;20401;-68
2021/10/24 08:01:41;;;;;;;7.43;5.72;;;845.30;640.00;;;;;;5076497;28;20030;-69
2021/10/24 08:04:07;;;;;;;10.02;7.85;;;845.60;640.00;;;;;;5058590;28;20048;-66
2021/10/24 08:06:34;;;;;;;7.15;6.20;;;870.40;614.40;;;;;;5076469;28;20040;-67
2021/10/24 08:09:06;;;;;;;7.35;5.07;;;871.20;563.20;;;;;;5076796;28;20028;-67
2021/10/24 08:11:32;;;;;;;7.60;4.30;;;896.00;563.20;;;;;;5071626;28;20040;-66
2021/10/24 08:13:59;;;;;;;7.30;4.45;;;896.80;512.00;;;;;;5056409;28;20036;-75
2021/10/24 08:16:24;;;;;;;8.05;5.40;;;922.00;537.60;;;;;;5055917;28;20394;-74
2021/10/24 08:18:51;;;;;;;7.95;4.55;;;922.50;512.00;;;;;;5055949;28;20021;-76
2021/10/24 08:21:18;;;;;;;12.00;8.18;;;947.50;486.40;;;;;;5056472;28;20036;-68
2021/10/24 08:23:44;;;;;;;7.78;4.85;;;948.00;486.40;;;;;;5056206;28;20072;-68
2021/10/24 08:26:11;;;;;;;6.97;4.60;;;947.90;486.40;;;;;;5039644;28;20022;-72
2021/10/24 08:28:38;;;;;;;6.93;4.60;;;947.70;486.40;;;;;;5034257;28;20041;-70
2021/10/24 08:31:03;;;;;;;8.95;4.95;;;948.00;486.40;;;;;;5033627;28;20068;-66
2021/10/24 08:33:30;;;;;;;7.68;5.35;;;948.00;460.80;;;;;;5033859;28;20053;-68
2021/10/24 08:36:01;;;;;;;9.68;7.00;;;972.90;460.80;;;;;;5035159;28;20473;-67
2021/10/24 08:38:28;;;;;;;16.23;10.55;;;973.30;460.80;;;;;;5062372;28;20043;-66
2021/10/24 08:40:55;;;;;;;14.63;9.82;;;973.50;460.80;;;;;;5061882;28;20033;-62
2021/10/24 08:43:28;;;;;;;11.27;6.18;;;973.60;460.80;;;;;;5059155;28;20413;-66
2021/10/24 08:45:54;;;;;;;12.35;8.15;;;973.60;435.20;;;;;;5062375;28;20025;-67
2021/10/24 08:48:20;;;;;;;7.60;5.13;;;998.70;435.20;;;;;;5059116;28;20139;-66
2021/10/24 08:50:46;;;;;;;8.27;5.97;;;998.60;460.80;;;;;;5063594;28;20047;-65
2021/10/24 08:53:13;;;;;;;8.20;5.15;;;998.80;435.20;;;;;;5061235;28;20049;-62
2021/10/24 08:55:41;;;;;;;8.45;4.75;;;999.00;409.60;;;;;;5059062;28;20374;-66
2021/10/24 08:58:09;;;;;;;6.47;3.80;;;999.20;435.20;;;;;;5062089;28;20469;-62
2021/10/24 09:00:35;;;;;;;9.45;4.80;;;998.90;460.80;;;;;;5063853;28;20024;-66
2021/10/24 09:03:12;;;;;;;7.03;4.80;;;1024.00;409.60;;;;;;5061525;28;20533;-68
2021/10/24 09:05:42;;;;;;;7.05;3.45;;;999.30;409.60;;;;;;5044413;28;20377;-64
2021/10/24 09:08:10;;;;;;;6.32;3.40;;;973.40;409.60;;;;;;5061161;28;20028;-63
2021/10/24 09:10:46;;;;;;;8.20;3.60;;;998.80;435.20;;;;;;5065475;28;20103;-65
2021/10/24 09:13:23;;;;;;;8.40;4.35;;;998.70;409.60;;;;;;5062580;28;20045;-61
2021/10/24 09:15:57;;;;;;;14.68;9.00;;;973.30;435.20;;;;;;5061919;28;20092;-60
2021/10/24 09:18:43;;;;;;;;;;;998.50;435.20;;;;;;5059792;28;20036;-64
2021/10/24 09:21:15;;;;;;;16.20;11.00;;;998.50;409.60;;;;;;5059970;28;19927;-68
2021/10/24 09:23:59;;;;;;;7.07;3.22;;;998.80;409.60;;;;;;5059287;28;20043;-66
2021/10/24 09:26:27;;;;;;;8.15;4.68;;;998.50;409.60;;;;;;5060442;28;20480;-68
2021/10/24 09:29:00;;;;;;;7.95;4.90;;;998.70;409.60;;;;;;5061484;28;20033;-64
2021/10/24 09:31:27;;;;;;;11.98;8.98;;;998.80;409.60;;;;;;5060474;28;20025;-69
2021/10/24 09:33:55;;;;;;;8.07;6.03;;;999.30;409.60;;;;;;5060718;28;20043;-61
2021/10/24 09:36:25;;;;;;;8.05;4.32;;;999.20;435.20;;;;;;5058024;28;20112;-69
2021/10/24 09:38:51;;;;;;;5.50;3.40;;;1024.10;384.00;;;;;;5060020;28;20037;-67
2021/10/24 09:41:30;;;;;;;5.57;3.30;;;973.70;409.60;;;;;;5059304;28;20108;-69
2021/10/24 09:44:11;;;;;;;7.50;4.63;;;973.10;435.20;;;;;;5045453;28;20037;-64
2021/10/24 09:46:37;;;;;;;6.50;4.88;;;998.70;435.20;;;;;;5052915;28;20025;-66
2021/10/24 09:49:15;;;;;;;7.63;5.00;;;999.10;409.60;;;;;;5053950;28;20041;-63
2021/10/24 09:51:41;;;;;;;5.38;3.05;;;999.30;409.60;;;;;;5059044;28;20070;-67
2021/10/24 09:54:25;;;;;;;4.70;3.20;;;998.50;409.60;;;;;;5051084;28;20045;-67
2021/10/24 09:56:52;;;;;;;5.78;3.38;;;973.50;384.00;;;;;;5042199;28;20073;-66
2021/10/24 09:59:21;;;;;;;5.63;3.47;;;998.70;384.00;;;;;;5061491;28;20061;-67
2021/10/24 10:01:54;;;;;;;5.07;3.90;;;948.10;409.60;;;;;;5058375;28;20029;-68
2021/10/24 10:04:23;;;;;;;7.22;3.20;;;998.70;409.60;;;;;;5059936;28;20039;-64
2021/10/24 10:06:50;;;;;;;5.55;4.85;;;973.70;384.00;;;;;;5057946;28;20021;-67
2021/10/24 10:09:16;;;;;;;7.05;4.20;;;973.40;384.00;;;;;;5060571;28;20123;-67
2021/10/24 10:11:57;;;;;;;4.88;2.90;;;999.10;409.60;;;;;;5059835;28;20020;-63
2021/10/24 10:14:26;;;;;;;6.50;3.10;;;922.40;409.60;;;;;;5070034;28;20131;-67
2021/10/24 10:17:01;;;;;;;5.38;3.25;;;922.30;435.20;;;;;;5063490;28;20025;-67
2021/10/24 10:19:39;;;;;;;6.88;3.63;;;948.00;384.00;;;;;;5060140;28;20044;-66
2021/10/24 10:22:25;;;;;;;4.85;3.40;;;973.30;409.60;;;;;;5059197;28;20027;-67
2021/10/24 10:25:09;;;;;;;5.55;3.42;;;973.60;384.00;;;;;;5063915;28;20146;-66
2021/10/24 10:27:39;;;;;;;5.28;3.28;;;998.90;384.00;;;;;;5061977;28;20500;-67
2021/10/24 10:30:14;;;;;;;5.63;3.60;;;973.50;384.00;;;;;;5059766;28;20057;-65
2021/10/24 10:32:49;;;;;;;6.22;3.38;;;973.00;409.60;;;;;;5040732;28;20032;-64
2021/10/24 10:35:19;;;;;;;9.02;4.82;;;973.60;384.00;;;;;;5063131;28;20051;-67
2021/10/24 10:38:01;;;;;;;6.40;4.60;;;973.50;409.60;;;;;;5071658;28;20103;-64
2021/10/24 10:40:33;;;;;;;4.68;2.78;;;998.60;409.60;;;;;;5065881;28;20024;-65
2021/10/24 10:43:20;;;;;;;11.73;8.45;;;921.90;435.20;;;;;;5061126;28;20082;-63
2021/10/24 10:45:49;;;;;;;5.00;3.08;;;973.20;409.60;;;;;;5072192;28;20025;-62
2021/10/24 10:48:32;;;;;;;6.18;2.90;;;922.50;409.60;;;;;;5071157;28;20098;-65
2021/10/24 10:50:59;;;;;;;7.30;4.97;;;948.00;384.00;;;;;;5071154;28;20078;-61
2021/10/24 10:53:31;;;;;;;4.57;3.20;;;973.70;384.00;;;;;;5071327;28;20049;-63
2021/10/24 10:55:56;;;;;;;6.28;4.03;;;947.30;409.60;;;;;;5071804;28;20098;-64
2021/10/24 10:58:52;;;;;;;7.22;5.78;;;972.90;435.20;;;;;;5048377;28;20533;-66
2021/10/24 11:01:23;;;;;;;10.07;6.55;;;973.70;384.00;;;;;;5049445;28;20033;-66
2021/10/24 11:03:54;;;;;;;6.25;4.05;;;998.90;384.00;;;;;;5051584;28;20037;-62
2021/10/24 11:06:23;;;;;;;5.97;3.50;;;1024.10;358.40;;;;;;5050240;28;20126;-66
2021/10/24 11:09:06;;;;;;;6.68;4.00;;;999.10;358.40;;;;;;5050073;28;20120;-64
2021/10/24 11:11:42;;;;;;;5.20;3.40;;;999.30;384.00;;;;;;5051394;28;20032;-72
2021/10/24 11:14:11;;;;;;;5.90;4.40;;;998.40;409.60;;;;;;5050572;28;20049;-68
2021/10/24 11:16:42;;;;;;;6.57;3.90;;;998.50;409.60;;;;;;5033153;28;20032;-74
2021/10/24 11:21:57;;;;;;;10.45;7.43;;;998.90;384.00;;;;;;5054961;28;20474;-67
2021/10/24 11:24:24;;;;;;;9.00;7.03;;;999.20;384.00;;;;;;5058918;28;20034;-68
2021/10/24 11:26:57;;;;;;;6.70;4.93;;;1024.10;384.00;;;;;;5072794;28;20111;-62
2021/10/24 11:29:23;;;;;;;6.63;4.25;;;1024.40;358.40;;;;;;5064655;28;20036;-64
2021/10/24 11:32:08;;;;;;;6.32;4.45;;;998.70;358.40;;;;;;5054726;28;20029;-67
2021/10/24 11:34:35;;;;;;;4.43;2.80;;;999.00;384.00;;;;;;5054582;28;20075;-66
2021/10/24 11:37:01;;;;;;;5.88;4.30;;;973.60;358.40;;;;;;5062207;28;20029;-63
2021/10/24 11:39:27;;;;;;;4.32;2.92;;;973.10;358.40;;;;;;5060055;28;20110;-66
2021/10/24 11:42:14;;;;;;;4.88;3.20;;;973.30;358.40;;;;;;5063533;28;20472;-65
2021/10/24 11:44:41;;;;;;;4.28;2.80;;;973.10;384.00;;;;;;5036311;28;20143;-66
2021/10/24 11:47:14;;;;;;;5.55;4.50;;;973.10;358.40;;;;;;5053359;28;20025;-66
2021/10/24 11:49:55;;;;;;;6.25;3.42;;;922.20;409.60;;;;;;5053453;28;20021;-65
2021/10/24 11:52:29;;;;;;;6.10;3.80;;;921.60;409.60;;;;;;5052784;28;20033;-65
2021/10/24 11:55:12;;;;;;;6.90;3.30;;;947.80;384.00;;;;;;5056886;28;20036;-65
2021/10/24 11:58:04;;;;;;;5.70;4.13;;;948.00;358.40;;;;;;5052779;28;20497;-65
2021/10/24 12:03:12;;;;;;;8.02;3.80;;;973.60;332.80;;;;;;5059072;28;20028;-65
2021/10/24 12:05:42;;;;;;;6.38;3.50;;;947.70;358.40;;;;;;5062896;28;20036;-67
2021/10/24 12:08:08;;;;;;;4.28;3.10;;;948.00;358.40;;;;;;5059434;28;20033;-65
2021/10/24 12:10:37;;;;;;;4.70;3.30;;;948.00;358.40;;;;;;5054679;28;20025;-66
2021/10/24 12:13:05;;;;;;;4.10;3.17;;;972.80;358.40;;;;;;5043900;28;20045;-65
2021/10/24 12:15:37;;;;;;;4.75;3.53;;;998.60;384.00;;;;;;5036195;28;20061;-66
2021/10/24 12:18:16;;;;;;;11.18;6.55;;;999.30;332.80;;;;;;5036573;28;20033;-65
2021/10/24 12:20:58;;;;;;;7.38;6.18;;;998.70;332.80;;;;;;5036212;28;20105;-65
2021/10/24 12:23:29;;;;;;;6.50;3.65;;;972.80;358.40;;;;;;5036239;28;20533;-65